Time;durP1;ratioP1;P1;durP2;ratioP2;P2;SDS_P1;SDS_P2;PMS_P1;PMS_P2;Temp;Humidity;BMP_temperature;BMP_pressure;BME280_temperature;BME280_humidity;BME280_pressure;Samples;Min_cycle;Max_cycle;Signal;HPM_P1;HPM_P2
2022/08/31 00:05:38;;;;;;;;;;;20.70;1.00;;;;;;5053081;28;20327;-87
2022/08/31 00:08:04;;;;;;;;;;;20.60;1.00;;;;;;5056078;28;19909;-86
2022/08/31 00:10:30;;;;;;;;;;;20.40;1.00;;;;;;5055987;28;19921;-86
2022/08/31 00:12:55;;;;;;;;;;;20.30;1.00;;;;;;5056247;28;19916;-86
2022/08/31 00:15:22;;;;;;;;;;;20.30;1.00;;;;;;5057097;28;19916;-86
2022/08/31 00:17:48;;;;;;;;;;;20.20;1.00;;;;;;5057974;28;20012;-86
2022/08/31 00:20:15;;;;;;;;;;;20.10;9.10;;;;;;5057688;28;20004;-86
2022/08/31 00:22:40;;;;;;;;;;;20.10;23.50;;;;;;5057785;28;20553;-87
2022/08/31 00:25:06;;;;;;;;;;;20.20;51.20;;;;;;5057034;28;19916;-86
2022/08/31 00:27:32;;;;;;;;;;;20.20;50.40;;;;;;5056580;28;19909;-86
2022/08/31 00:29:58;;;;;;;;;;;20.30;49.80;;;;;;5057071;28;19915;-86
2022/08/31 00:32:23;;;;;;;;;;;20.30;21.80;;;;;;5058865;28;19948;-86
2022/08/31 00:34:51;;;;;;;;;;;20.30;31.70;;;;;;5055487;28;20578;-86
2022/08/31 00:37:17;;;;;;;;;;;20.30;29.50;;;;;;5055564;28;19915;-86
2022/08/31 00:39:42;;;;;;;;;;;20.20;26.60;;;;;;5054404;28;19972;-85
2022/08/31 00:42:08;;;;;;;;;;;20.20;37.70;;;;;;5055526;28;19913;-86
2022/08/31 00:44:33;;;;;;;;;;;20.10;20.80;;;;;;5054421;28;19909;-85
2022/08/31 00:46:59;;;;;;;;;;;20.10;23.30;;;;;;5053835;28;19908;-85
2022/08/31 00:49:27;;;;;;;;;;;20.10;25.50;;;;;;5054639;28;20355;-85
2022/08/31 00:51:55;;;;;;;;;;;20.10;52.20;;;;;;5054403;28;19909;-85
2022/08/31 00:54:29;;;;;;;;;;;20.10;59.90;;;;;;5053731;28;19908;-85
2022/08/31 00:56:55;;;;;;;;;;;20.10;45.20;;;;;;5053816;28;19955;-85
2022/08/31 00:59:21;;;;;;;;;;;20.10;63.90;;;;;;5051923;28;20272;-86
2022/08/31 01:01:47;;;;;;;;;;;20.00;62.80;;;;;;5050881;28;19962;-86
2022/08/31 01:04:13;;;;;;;;;;;20.00;60.10;;;;;;5052130;28;20334;-86
2022/08/31 01:06:38;;;;;;;;;;;20.00;73.10;;;;;;5050799;28;19909;-85
2022/08/31 01:09:05;;;;;;;;;;;20.00;80.80;;;;;;5050648;28;19948;-84
2022/08/31 01:11:31;;;;;;;;;;;20.00;95.80;;;;;;5052341;28;19913;-85
2022/08/31 01:13:56;;;;;;;;;;;20.00;96.40;;;;;;5052003;28;19909;-84
2022/08/31 01:16:27;;;;;;;;;;;20.00;90.80;;;;;;5051886;28;19915;-88
2022/08/31 01:18:53;;;;;;;;;;;19.90;88.70;;;;;;5051405;28;19916;-86
2022/08/31 01:21:26;;;;;;;;;;;19.90;77.60;;;;;;5050825;28;19913;-84
2022/08/31 01:24:02;;;;;;;;;;;19.80;59.10;;;;;;5050903;28;19916;-86
2022/08/31 01:26:28;;;;;;;;;;;19.80;80.70;;;;;;5052644;28;20292;-84
2022/08/31 01:28:57;;;;;;;;;;;19.70;70.50;;;;;;5052788;28;20011;-86
2022/08/31 01:31:30;;;;;;;;;;;19.70;84.90;;;;;;5054358;28;19909;-86
2022/08/31 01:33:56;;;;;;;;;;;19.70;84.00;;;;;;5055761;28;19909;-84
2022/08/31 01:36:22;;;;;;;;;;;19.60;78.00;;;;;;5054098;28;19987;-85
2022/08/31 01:38:48;;;;;;;;;;;19.60;73.30;;;;;;5054524;28;20275;-86
2022/08/31 01:41:14;;;;;;;;;;;19.60;76.80;;;;;;5054006;28;20011;-86
2022/08/31 01:43:39;;;;;;;;;;;19.60;55.60;;;;;;5054038;28;19912;-84
2022/08/31 01:46:08;;;;;;;;;;;19.60;50.60;;;;;;5055199;28;20372;-84
2022/08/31 01:48:34;;;;;;;;;;;19.60;51.00;;;;;;5053899;28;19992;-85
2022/08/31 01:51:00;;;;;;;;;;;19.60;55.10;;;;;;5056975;28;20366;-85
2022/08/31 01:53:25;;;;;;;;;;;19.60;63.80;;;;;;5057159;28;19955;-85
2022/08/31 01:55:51;;;;;;;;;;;19.60;58.40;;;;;;5056274;28;19937;-85
2022/08/31 01:58:16;;;;;;;;;;;19.50;58.00;;;;;;5056833;28;19916;-85
2022/08/31 02:00:42;;;;;;;;;;;19.50;76.10;;;;;;5056825;28;20319;-84
2022/08/31 02:03:08;;;;;;;;;;;19.50;61.10;;;;;;5054294;28;20272;-87
2022/08/31 02:05:34;;;;;;;;;;;19.50;73.10;;;;;;5053639;28;19909;-86
2022/08/31 02:08:01;;;;;;;;;;;19.50;71.20;;;;;;5056540;28;20291;-84
2022/08/31 02:10:26;;;;;;;;;;;19.50;94.10;;;;;;5067083;28;19924;-84
2022/08/31 02:12:52;;;;;;;;;;;19.40;93.60;;;;;;5066090;28;19908;-85
2022/08/31 02:15:17;;;;;;;;;;;19.40;89.50;;;;;;5065906;28;19909;-85
2022/08/31 02:17:43;;;;;;;;;;;19.30;99.90;;;;;;5057081;28;20372;-86
2022/08/31 02:20:10;;;;;;;;;;;19.30;99.90;;;;;;5058615;28;19909;-85
2022/08/31 02:22:35;;;;;;;;;;;19.20;91.60;;;;;;5053184;28;19952;-85
2022/08/31 02:25:00;;;;;;;;;;;19.10;91.90;;;;;;5053597;28;20017;-84
2022/08/31 02:27:26;;;;;;;;;;;19.00;65.10;;;;;;5053607;28;19909;-84
2022/08/31 02:29:51;;;;;;;;;;;19.00;95.40;;;;;;5055640;28;20261;-86
2022/08/31 02:32:17;;;;;;;;;;;19.00;93.60;;;;;;5058473;28;19932;-86
2022/08/31 02:34:43;;;;;;;;;;;19.00;99.90;;;;;;5056740;28;19944;-85
2022/08/31 02:37:09;;;;;;;;;;;18.90;99.90;;;;;;5054550;28;19909;-84
2022/08/31 02:39:34;;;;;;;;;;;18.90;99.90;;;;;;5062974;28;19943;-85
2022/08/31 02:42:00;;;;;;;;;;;18.90;99.90;;;;;;5053782;28;20440;-84
2022/08/31 02:44:25;;;;;;;;;;;18.90;99.90;;;;;;5052848;28;19909;-84
2022/08/31 02:46:51;;;;;;;;;;;18.90;99.90;;;;;;5053943;28;19913;-86
2022/08/31 02:49:16;;;;;;;;;;;18.90;99.90;;;;;;5054282;28;19908;-84
2022/08/31 02:51:42;;;;;;;;;;;18.90;99.90;;;;;;5052970;28;20012;-86
2022/08/31 02:54:09;;;;;;;;;;;18.80;95.40;;;;;;5052916;28;19909;-86
2022/08/31 02:56:34;;;;;;;;;;;18.80;99.90;;;;;;5053167;28;19909;-84
2022/08/31 02:59:00;;;;;;;;;;;18.80;99.90;;;;;;5054018;28;19931;-87
2022/08/31 03:01:25;;;;;;;;;;;18.80;99.90;;;;;;5053353;28;19919;-84
2022/08/31 03:03:51;;;;;;;;;;;18.80;99.90;;;;;;5052898;28;20003;-84
2022/08/31 03:06:18;;;;;;;;;;;18.70;99.90;;;;;;5052415;28;19909;-85
2022/08/31 03:08:43;;;;;;;;;;;18.70;99.90;;;;;;5052557;28;19909;-84
2022/08/31 03:11:09;;;;;;;;;;;18.60;99.90;;;;;;5052752;28;19966;-86
2022/08/31 03:13:35;;;;;;;;;;;18.70;99.90;;;;;;5052710;28;19916;-85
2022/08/31 03:16:01;;;;;;;;;;;18.60;99.90;;;;;;5053603;28;19909;-85
2022/08/31 03:18:26;;;;;;;;;;;18.60;99.90;;;;;;5052863;28;19916;-86
2022/08/31 03:20:52;;;;;;;;;;;18.60;99.90;;;;;;5053776;28;20382;-84
2022/08/31 03:23:17;;;;;;;;;;;18.60;99.90;;;;;;5052453;28;20363;-85
2022/08/31 03:25:43;;;;;;;;;;;18.60;99.90;;;;;;5052067;28;19924;-84
2022/08/31 03:28:09;;;;;;;;;;;18.60;99.90;;;;;;5052138;28;20417;-85
2022/08/31 03:30:34;;;;;;;;;;;18.70;99.90;;;;;;5051916;28;19932;-85
2022/08/31 03:33:00;;;;;;;;;;;18.60;99.90;;;;;;5052115;28;20364;-85
2022/08/31 03:35:25;;;;;;;;;;;18.70;99.90;;;;;;5051908;28;19909;-85
2022/08/31 03:37:51;;;;;;;;;;;18.70;99.90;;;;;;5051677;28;19955;-85
2022/08/31 03:40:16;;;;;;;;;;;18.60;99.90;;;;;;5051799;28;19908;-85
2022/08/31 03:42:43;;;;;;;;;;;18.70;99.90;;;;;;5053076;28;20353;-86
2022/08/31 03:45:09;;;;;;;;;;;18.70;99.90;;;;;;5051613;28;19909;-86
2022/08/31 03:47:35;;;;;;;;;;;18.70;99.90;;;;;;5051545;28;19992;-86
2022/08/31 03:50:02;;;;;;;;;;;18.70;99.90;;;;;;5051672;28;20000;-85
2022/08/31 03:52:28;;;;;;;;;;;18.70;99.90;;;;;;5051205;28;19912;-86
2022/08/31 03:54:53;;;;;;;;;;;18.60;99.90;;;;;;5051632;28;20060;-85
2022/08/31 03:57:19;;;;;;;;;;;18.60;99.90;;;;;;5051407;28;19913;-86
2022/08/31 03:59:44;;;;;;;;;;;18.60;99.90;;;;;;5052766;28;20368;-86
2022/08/31 04:02:10;;;;;;;;;;;18.60;99.90;;;;;;5052794;28;19916;-86
2022/08/31 04:04:35;;;;;;;;;;;18.50;99.90;;;;;;5051587;28;20296;-86
2022/08/31 04:07:01;;;;;;;;;;;18.50;99.90;;;;;;5052541;28;19916;-86
2022/08/31 04:09:26;;;;;;;;;;;18.50;99.90;;;;;;5099295;22;19924;-85
2022/08/31 04:11:52;;;;;;;;;;;18.50;99.90;;;;;;5071440;28;20258;-85
2022/08/31 04:14:17;;;;;;;;;;;18.50;99.90;;;;;;5072803;28;19916;-85
2022/08/31 04:16:43;;;;;;;;;;;18.50;99.90;;;;;;5071321;28;19908;-86
2022/08/31 04:19:10;;;;;;;;;;;18.60;99.90;;;;;;5071548;28;20272;-85
2022/08/31 04:21:36;;;;;;;;;;;18.60;99.90;;;;;;5071297;28;19942;-85
2022/08/31 04:24:01;;;;;;;;;;;18.50;99.90;;;;;;5072749;28;19912;-85
2022/08/31 04:26:31;;;;;;;;;;;18.50;99.90;;;;;;5071153;28;19916;-85
2022/08/31 04:28:57;;;;;;;;;;;18.50;99.90;;;;;;5071246;28;20039;-85
2022/08/31 04:31:23;;;;;;;;;;;18.50;99.90;;;;;;5071304;28;19962;-85
2022/08/31 04:33:49;;;;;;;;;;;18.50;99.90;;;;;;5071562;28;19920;-84
2022/08/31 04:36:16;;;;;;;;;;;18.50;99.90;;;;;;5070996;28;19913;-85
2022/08/31 04:38:46;;;;;;;;;;;18.50;99.90;;;;;;5072339;28;19909;-85
2022/08/31 04:41:12;;;;;;;;;;;18.50;99.90;;;;;;5072252;28;19918;-85
2022/08/31 04:43:38;;;;;;;;;;;18.50;99.90;;;;;;5072371;28;20399;-85
2022/08/31 04:46:04;;;;;;;;;;;18.40;99.90;;;;;;5070877;28;19908;-85
2022/08/31 04:48:30;;;;;;;;;;;18.40;99.90;;;;;;5071027;28;19912;-85
2022/08/31 04:51:07;;;;;;;;;;;18.40;99.90;;;;;;5070936;28;19908;-85
2022/08/31 04:53:35;;;;;;;;;;;18.50;99.90;;;;;;5070983;28;19908;-85
2022/08/31 04:56:06;;;;;;;;;;;18.40;99.90;;;;;;5070751;28;20257;-85
2022/08/31 04:58:31;;;;;;;;;;;18.50;99.90;;;;;;5071324;28;20000;-85
2022/08/31 05:00:57;;;;;;;;;;;18.50;99.90;;;;;;5072493;28;19940;-85
2022/08/31 05:03:22;;;;;;;;;;;18.50;99.90;;;;;;5071169;28;19962;-86
2022/08/31 05:05:51;;;;;;;;;;;18.40;99.90;;;;;;5075982;28;19912;-86
2022/08/31 05:08:17;;;;;;;;;;;18.50;99.90;;;;;;5074973;28;19915;-85
2022/08/31 05:10:42;;;;;;;;;;;18.40;99.90;;;;;;5074643;28;19977;-86
2022/08/31 05:13:08;;;;;;;;;;;18.40;99.90;;;;;;5074955;28;20127;-85
2022/08/31 05:15:38;;;;;;;;;;;18.40;99.90;;;;;;5075971;28;19908;-85
2022/08/31 05:18:04;;;;;;;;;;;18.40;99.90;;;;;;5077877;28;19908;-86
2022/08/31 05:20:29;;;;;;;;;;;18.50;99.90;;;;;;5079377;28;20287;-86
2022/08/31 05:22:55;;;;;;;;;;;18.50;99.90;;;;;;5077535;28;19916;-87
2022/08/31 05:25:20;;;;;;;;;;;18.50;99.90;;;;;;5077397;28;19908;-86
2022/08/31 05:27:46;;;;;;;;;;;18.50;99.90;;;;;;5076018;28;19967;-86
2022/08/31 05:30:12;;;;;;;;;;;18.50;99.90;;;;;;5076618;28;20337;-86
2022/08/31 05:32:38;;;;;;;;;;;18.60;99.90;;;;;;5076397;28;19913;-86
2022/08/31 05:35:03;;;;;;;;;;;18.60;99.90;;;;;;5077488;28;20379;-86
2022/08/31 05:37:29;;;;;;;;;;;18.70;99.90;;;;;;5075699;28;19919;-87
2022/08/31 05:39:55;;;;;;;;;;;18.70;99.90;;;;;;5076016;28;19909;-86
2022/08/31 05:42:20;;;;;;;;;;;18.70;99.90;;;;;;5076509;28;20054;-86
2022/08/31 05:44:46;;;;;;;;;;;18.70;99.90;;;;;;5076882;28;19908;-86
2022/08/31 05:47:12;;;;;;;;;;;18.70;99.90;;;;;;5076599;28;19908;-86
2022/08/31 05:49:38;;;;;;;;;;;18.70;99.90;;;;;;5076274;28;19940;-86
2022/08/31 05:52:04;;;;;;;;;;;18.70;99.90;;;;;;5076660;28;19908;-87
2022/08/31 05:54:33;;;;;;;;;;;18.70;99.90;;;;;;5076786;28;20019;-85
2022/08/31 05:56:58;;;;;;;;;;;18.70;99.90;;;;;;5076313;28;19912;-86
2022/08/31 05:59:24;;;;;;;;;;;18.80;99.90;;;;;;5077947;28;19915;-87
2022/08/31 06:01:49;;;;;;;;;;;18.70;99.90;;;;;;5077520;28;19912;-85
2022/08/31 06:04:15;;;;;;;;;;;18.70;99.90;;;;;;5075591;28;19915;-86
2022/08/31 06:06:40;;;;;;;;;;;18.70;99.90;;;;;;5076145;28;19909;-86
2022/08/31 06:09:07;;;;;;;;;;;18.70;99.90;;;;;;5075918;28;19908;-86
2022/08/31 06:11:33;;;;;;;;;;;18.70;99.90;;;;;;5076052;28;19919;-86
2022/08/31 06:14:00;;;;;;;;;;;18.70;99.90;;;;;;5076576;28;19920;-86
2022/08/31 06:16:25;;;;;;;;;;;18.70;99.90;;;;;;5076720;28;20386;-86
2022/08/31 06:18:52;;;;;;;;;;;18.70;99.90;;;;;;5077919;28;19908;-86
2022/08/31 06:21:19;;;;;;;;;;;18.70;99.90;;;;;;5077491;28;19967;-85
2022/08/31 06:23:46;;;;;;;;;;;18.80;99.90;;;;;;5078111;28;19912;-86
2022/08/31 06:26:14;;;;;;;;;;;18.80;99.90;;;;;;5078798;28;19924;-85
2022/08/31 06:28:43;;;;;;;;;;;18.80;99.90;;;;;;5076686;28;19999;-85
2022/08/31 06:31:22;;;;;;;;;;;18.90;99.90;;;;;;5077136;28;20391;-86
2022/08/31 06:33:47;;;;;;;;;;;18.90;99.90;;;;;;5078145;28;19909;-85
2022/08/31 06:36:15;;;;;;;;;;;18.90;99.90;;;;;;5076896;28;20447;-86
2022/08/31 06:38:42;;;;;;;;;;;19.00;99.90;;;;;;5077929;28;19962;-85
2022/08/31 06:41:27;;;;;;;;;;;19.00;99.90;;;;;;5077759;28;20287;-85
2022/08/31 06:43:53;;;;;;;;;;;19.00;99.90;;;;;;5076466;28;19955;-86
2022/08/31 06:46:19;;;;;;;;;;;19.10;99.90;;;;;;5076732;28;19912;-85
2022/08/31 06:48:44;;;;;;;;;;;19.10;99.90;;;;;;5077712;28;19913;-85
2022/08/31 06:51:11;;;;;;;;;;;19.20;99.90;;;;;;5077000;28;19962;-85
2022/08/31 06:53:39;;;;;;;;;;;19.20;99.90;;;;;;5077115;28;20612;-85
2022/08/31 06:56:14;;;;;;;;;;;19.20;99.90;;;;;;5076346;28;19931;-85
2022/08/31 06:58:40;;;;;;;;;;;19.20;99.90;;;;;;5078772;28;20343;-85
2022/08/31 07:01:10;;;;;;;;;;;19.20;99.90;;;;;;5077905;28;19913;-85
2022/08/31 07:03:36;;;;;;;;;;;19.30;99.90;;;;;;5078144;28;19915;-85
2022/08/31 07:06:04;;;;;;;;;;;19.20;99.90;;;;;;5078335;28;19909;-85
2022/08/31 07:08:30;;;;;;;;;;;19.30;99.90;;;;;;5078241;28;19995;-85
2022/08/31 07:10:56;;;;;;;;;;;19.30;99.90;;;;;;5078023;28;19958;-85
2022/08/31 07:13:21;;;;;;;;;;;19.40;99.90;;;;;;5077928;28;19962;-86
2022/08/31 07:15:47;;;;;;;;;;;19.40;99.90;;;;;;5077553;28;19908;-86
2022/08/31 07:18:12;;;;;;;;;;;19.50;99.90;;;;;;5077915;28;20022;-85
2022/08/31 07:20:38;;;;;;;;;;;19.50;99.90;;;;;;5078907;28;20334;-86
2022/08/31 07:23:04;;;;;;;;;;;19.50;99.90;;;;;;5079743;28;19919;-85
2022/08/31 07:25:29;;;;;;;;;;;19.60;99.90;;;;;;5078225;28;19920;-86
2022/08/31 07:27:55;;;;;;;;;;;19.60;99.90;;;;;;5076804;28;19912;-85
2022/08/31 07:30:21;;;;;;;;;;;19.60;99.90;;;;;;5076994;28;19916;-85
2022/08/31 07:32:47;;;;;;;;;;;19.60;99.90;;;;;;5077936;28;20326;-84
2022/08/31 07:35:12;;;;;;;;;;;19.70;99.90;;;;;;5077318;28;19909;-86
2022/08/31 07:43:06;;;;;;;;;;;19.80;99.40;;;;;;5081451;28;19918;-86
2022/08/31 07:45:32;;;;;;;;;;;19.90;96.70;;;;;;5080040;28;20003;-83
2022/08/31 07:47:59;;;;;;;;;;;20.00;83.50;;;;;;5079808;28;19952;-83
2022/08/31 07:50:26;;;;;;;;;;;20.00;75.30;;;;;;5077333;28;19908;-84
2022/08/31 07:52:52;;;;;;;;;;;20.20;84.30;;;;;;5078051;28;19908;-83
2022/08/31 07:55:19;;;;;;;;;;;20.30;79.70;;;;;;5078993;28;19916;-84
2022/08/31 07:57:45;;;;;;;;;;;20.40;63.00;;;;;;5078888;28;19912;-83
2022/08/31 08:00:13;;;;;;;;;;;20.50;56.30;;;;;;5080260;28;20283;-83
2022/08/31 08:02:39;;;;;;;;;;;20.70;50.40;;;;;;5078518;28;19924;-83
2022/08/31 08:05:06;;;;;;;;;;;20.90;48.90;;;;;;5072456;28;20169;-83
2022/08/31 08:07:32;;;;;;;;;;;21.00;38.20;;;;;;5074243;28;19916;-84
2022/08/31 08:09:59;;;;;;;;;;;21.10;17.20;;;;;;5072873;28;19916;-83
2022/08/31 08:12:26;;;;;;;;;;;21.20;22.80;;;;;;5073452;28;20386;-83
2022/08/31 08:14:56;;;;;;;;;;;21.30;40.90;;;;;;5072356;28;19921;-83
2022/08/31 08:17:21;;;;;;;;;;;21.40;35.00;;;;;;5071527;28;20386;-84
2022/08/31 08:19:47;;;;;;;;;;;21.40;24.00;;;;;;5071350;28;19947;-83
2022/08/31 08:22:12;;;;;;;;;;;21.50;9.20;;;;;;5071287;28;19912;-84
2022/08/31 08:24:38;;;;;;;;;;;21.50;13.70;;;;;;5078241;28;19912;-84
2022/08/31 08:27:04;;;;;;;;;;;21.50;13.70;;;;;;5083683;28;20007;-86
2022/08/31 08:29:30;;;;;;;;;;;21.60;18.60;;;;;;5081511;28;19940;-85
2022/08/31 08:31:55;;;;;;;;;;;21.50;12.20;;;;;;5081046;28;19943;-83
2022/08/31 08:34:21;;;;;;;;;;;21.50;14.90;;;;;;5079001;28;19909;-84
2022/08/31 08:36:47;;;;;;;;;;;21.60;11.80;;;;;;5078026;28;20330;-83
2022/08/31 08:39:13;;;;;;;;;;;21.60;9.30;;;;;;5078334;28;19958;-83
2022/08/31 08:41:40;;;;;;;;;;;21.70;18.50;;;;;;5081584;28;19916;-86
2022/08/31 08:44:10;;;;;;;;;;;21.80;12.00;;;;;;5079460;28;20029;-86
2022/08/31 08:46:42;;;;;;;;;;;22.00;2.40;;;;;;5078805;28;19910;-84
2022/08/31 08:49:14;;;;;;;;;;;22.20;9.10;;;;;;5077884;28;19963;-87
2022/08/31 08:51:40;;;;;;;;;;;22.40;1.00;;;;;;5077928;28;19916;-84
2022/08/31 08:54:10;;;;;;;;;;;22.90;1.00;;;;;;5078530;28;19908;-84
2022/08/31 08:56:40;;;;;;;;;;;23.70;1.00;;;;;;5078520;28;19909;-84
2022/08/31 08:59:07;;;;;;;;;;;24.60;1.00;;;;;;5077536;28;19908;-85
2022/08/31 09:01:35;;;;;;;;;;;25.00;1.00;;;;;;5078638;28;20431;-84
2022/08/31 09:04:04;;;;;;;;;;;25.30;1.00;;;;;;5078104;28;19952;-84
2022/08/31 09:06:53;;;;;;;;;;;25.80;99.90;;;;;;5077589;28;19908;-84
2022/08/31 09:09:44;;;;;;;;;;;26.10;1.00;;;;;;5079914;28;20008;-84
2022/08/31 09:12:10;;;;;;;;;;;26.70;1.00;;;;;;5079566;28;19913;-84
2022/08/31 09:14:46;;;;;;;;;;;28.20;1.00;;;;;;5075602;28;19969;-85
2022/08/31 09:17:15;;;;;;;;;;;30.10;99.90;;;;;;5075619;28;19915;-85
2022/08/31 09:20:00;;;;;;;;;;;31.80;1.00;;;;;;5075399;28;19930;-85
2022/08/31 09:22:27;;;;;;;;;;;33.40;1.00;;;;;;5074199;28;19919;-85
2022/08/31 09:24:55;;;;;;;;;;;34.60;99.90;;;;;;5075709;28;19916;-85
2022/08/31 09:27:38;;;;;;;;;;;35.60;99.90;;;;;;5074392;28;19908;-86
2022/08/31 09:30:04;;;;;;;;;;;35.80;99.90;;;;;;5075573;28;19915;-85
2022/08/31 09:32:33;;;;;;;;;;;36.00;99.90;;;;;;5075490;28;19909;-86
2022/08/31 09:35:00;;;;;;;;;;;36.30;99.90;;;;;;5075459;28;20283;-85
2022/08/31 09:37:27;;;;;;;;;;;36.90;99.90;;;;;;5074951;28;20344;-88
2022/08/31 09:39:53;;;;;;;;;;;37.40;99.90;;;;;;5073817;28;19991;-84
2022/08/31 09:42:30;;;;;;;;;;;37.60;99.90;;;;;;5061271;28;20015;-87
2022/08/31 09:45:03;;;;;;;;;;;38.00;99.90;;;;;;5068026;28;19913;-86
2022/08/31 09:47:36;;;;;;;;;;;38.00;99.90;;;;;;5069035;28;19916;-85
2022/08/31 09:50:07;;;;;;;;;;;38.10;99.90;;;;;;5073242;28;19908;-85
2022/08/31 09:55:23;;;;;;;;;;;37.90;99.90;;;;;;5066256;28;20371;-88
2022/08/31 09:57:52;;;;;;;;;;;37.80;99.90;;;;;;5053143;28;19916;-87
2022/08/31 10:00:51;;;;;;;;;;;37.60;99.90;;;;;;5054009;28;19918;-85
2022/08/31 10:03:19;;;;;;;;;;;37.30;99.90;;;;;;5039954;28;20020;-85
2022/08/31 10:05:45;;;;;;;;;;;36.40;99.90;;;;;;5076627;28;19913;-83
2022/08/31 10:08:20;;;;;;;;;;;35.70;99.90;;;;;;5074650;28;19912;-84
2022/08/31 10:10:48;;;;;;;;;;;35.40;99.90;;;;;;5063695;28;19924;-85
2022/08/31 10:13:23;;;;;;;;;;;34.80;99.90;;;;;;5053961;28;19913;-84
2022/08/31 10:15:56;;;;;;;;;;;33.60;99.90;;;;;;5052962;28;20453;-85
2022/08/31 10:18:29;;;;;;;;;;;32.50;99.90;;;;;;5054042;28;19931;-84
2022/08/31 10:20:59;;;;;;;;;;;32.10;99.90;;;;;;5054790;28;20390;-85
2022/08/31 10:23:33;;;;;;;;;;;32.20;99.90;;;;;;5053900;28;20376;-85
2022/08/31 10:26:03;;;;;;;;;;;31.90;99.90;;;;;;5053675;28;20405;-86
2022/08/31 10:28:31;;;;;;;;;;;31.70;99.90;;;;;;5054725;28;19959;-85
2022/08/31 10:31:01;;;;;;;;;;;32.10;99.90;;;;;;5056294;28;19909;-85
2022/08/31 10:36:26;;;;;;;;;;;33.50;99.90;;;;;;5053932;28;19931;-85
2022/08/31 10:38:54;;;;;;;;;;;33.80;99.90;;;;;;5052977;28;19909;-83
2022/08/31 10:41:22;;;;;;;;;;;33.40;99.90;;;;;;5054071;28;19917;-83
2022/08/31 10:43:58;;;;;;;;;;;32.60;99.90;;;;;;5052797;28;19909;-83
2022/08/31 10:46:23;;;;;;;;;;;31.90;99.90;;;;;;5052306;28;19966;-83
2022/08/31 10:48:53;;;;;;;;;;;31.10;99.90;;;;;;5053970;28;20372;-83
2022/08/31 10:51:21;;;;;;;;;;;30.50;99.90;;;;;;5052604;28;19917;-83
2022/08/31 10:54:05;;;;;;;;;;;30.10;99.90;;;;;;5053903;28;19915;-82
2022/08/31 10:56:36;;;;;;;;;;;29.70;99.90;;;;;;5058646;28;19916;-83
2022/08/31 10:59:11;;;;;;;;;;;29.30;99.90;;;;;;5073640;28;19909;-84
2022/08/31 11:01:55;;;;;;;;;;;29.10;99.90;;;;;;5072629;28;19913;-82
2022/08/31 11:04:28;;;;;;;;;;;28.80;99.90;;;;;;5072099;28;19944;-83
2022/08/31 11:07:12;;;;;;;;;;;28.60;99.90;;;;;;5073379;28;19955;-83
2022/08/31 11:09:38;;;;;;;;;;;28.30;99.90;;;;;;5071871;28;19951;-83
2022/08/31 11:12:09;;;;;;;;;;;28.10;99.90;;;;;;5073392;28;19958;-82
2022/08/31 11:14:35;;;;;;;;;;;27.90;1.00;;;;;;5071986;28;19908;-82
2022/08/31 11:17:04;;;;;;;;;;;27.90;1.00;;;;;;5071860;28;19909;-83
2022/08/31 11:19:37;;;;;;;;;;;27.80;1.00;;;;;;5071883;28;19908;-83
2022/08/31 11:22:18;;;;;;;;;;;27.90;1.00;;;;;;5071892;28;19985;-83
2022/08/31 11:24:47;;;;;;;;;;;27.90;1.00;;;;;;5071963;28;20322;-82
2022/08/31 11:27:22;;;;;;;;;;;28.10;1.00;;;;;;5071736;28;20334;-81
2022/08/31 11:29:55;;;;;;;;;;;28.20;1.00;;;;;;5073335;28;19909;-81
2022/08/31 11:32:21;;;;;;;;;;;28.10;99.90;;;;;;5071768;28;19908;-81
2022/08/31 11:34:50;;;;;;;;;;;28.00;99.90;;;;;;5073011;28;19931;-82
2022/08/31 11:37:34;;;;;;;;;;;27.90;99.90;;;;;;5072992;28;20004;-82
2022/08/31 11:39:59;;;;;;;;;;;28.00;99.90;;;;;;5072991;28;19909;-82
2022/08/31 11:42:25;;;;;;;;;;;28.20;99.90;;;;;;5071579;28;20014;-82
2022/08/31 11:45:17;;;;;;;;;;;28.40;99.90;;;;;;5071678;28;20346;-82
2022/08/31 11:47:43;;;;;;;;;;;28.50;99.90;;;;;;5071467;28;20322;-82
2022/08/31 11:50:10;;;;;;;;;;;28.60;99.90;;;;;;5071607;28;19913;-82
2022/08/31 11:52:41;;;;;;;;;;;28.80;99.90;;;;;;5071583;28;19913;-82
2022/08/31 11:55:13;;;;;;;;;;;28.90;99.90;;;;;;5072682;28;19947;-83
2022/08/31 11:58:00;;;;;;;;;;;29.10;99.90;;;;;;5072746;28;19997;-82
2022/08/31 12:00:39;;;;;;;;;;;29.20;99.90;;;;;;5071332;28;19916;-84
2022/08/31 12:03:08;;;;;;;;;;;29.30;99.90;;;;;;5072494;28;19913;-82
2022/08/31 12:05:42;;;;;;;;;;;29.30;99.90;;;;;;5071215;28;19909;-83
2022/08/31 12:08:11;;;;;;;;;;;29.10;99.90;;;;;;5072662;28;19944;-82
2022/08/31 12:10:45;;;;;;;;;;;29.00;99.90;;;;;;5072755;28;20368;-82
2022/08/31 12:13:29;;;;;;;;;;;28.90;99.90;;;;;;5070993;28;19954;-83
2022/08/31 12:15:59;;;;;;;;;;;28.80;99.90;;;;;;5071175;28;19909;-82
2022/08/31 12:18:44;;;;;;;;;;;28.70;99.90;;;;;;5071608;28;20347;-83
2022/08/31 12:24:18;;;;;;;;;;;28.50;99.90;;;;;;5072556;28;19919;-83
2022/08/31 12:26:51;;;;;;;;;;;28.40;99.90;;;;;;5072267;28;20014;-83
2022/08/31 12:29:28;;;;;;;;;;;28.30;99.90;;;;;;5071137;28;19913;-83
2022/08/31 12:32:08;;;;;;;;;;;28.30;99.90;;;;;;5071100;28;20360;-82
2022/08/31 12:34:56;;;;;;;;;;;28.30;99.90;;;;;;5071060;28;19909;-82
2022/08/31 12:37:26;;;;;;;;;;;28.10;99.90;;;;;;5068998;28;19916;-82
2022/08/31 12:40:07;;;;;;;;;;;28.10;99.90;;;;;;5072461;28;19914;-83
2022/08/31 12:42:35;;;;;;;;;;;28.20;99.90;;;;;;5072512;28;20255;-82
2022/08/31 12:45:01;;;;;;;;;;;28.30;99.90;;;;;;5072483;28;19909;-84
2022/08/31 12:47:36;;;;;;;;;;;28.70;99.90;;;;;;5068314;28;19916;-83
2022/08/31 12:50:02;;;;;;;;;;;28.80;99.90;;;;;;5059941;28;19959;-83
2022/08/31 12:52:33;;;;;;;;;;;28.70;99.90;;;;;;5055236;28;20313;-83
2022/08/31 12:55:12;;;;;;;;;;;28.70;99.90;;;;;;5053859;28;19919;-84
2022/08/31 12:57:44;;;;;;;;;;;28.80;99.90;;;;;;5054778;28;19920;-83
2022/08/31 13:00:26;;;;;;;;;;;29.00;99.90;;;;;;5051759;28;19994;-85
2022/08/31 13:03:00;;;;;;;;;;;29.20;99.90;;;;;;5052648;28;20295;-84
2022/08/31 13:05:28;;;;;;;;;;;29.50;99.90;;;;;;5051084;28;20087;-86
2022/08/31 13:07:54;;;;;;;;;;;29.60;99.90;;;;;;5050706;28;19916;-84
2022/08/31 13:10:23;;;;;;;;;;;29.40;99.90;;;;;;5072579;28;19920;-84
2022/08/31 13:12:49;;;;;;;;;;;29.30;99.90;;;;;;5068890;28;19913;-84
2022/08/31 13:15:26;;;;;;;;;;;29.10;99.90;;;;;;5059874;28;20362;-86
2022/08/31 13:17:53;;;;;;;;;;;29.10;99.90;;;;;;5071839;28;20401;-85
2022/08/31 13:20:20;;;;;;;;;;;29.00;99.90;;;;;;5071823;28;19931;-83
2022/08/31 13:22:53;;;;;;;;;;;28.90;99.90;;;;;;5071656;28;19918;-85
2022/08/31 13:25:35;;;;;;;;;;;28.80;99.90;;;;;;5076463;28;19914;-85
2022/08/31 13:28:11;;;;;;;;;;;28.70;99.90;;;;;;5079538;28;20011;-85
2022/08/31 13:30:37;;;;;;;;;;;28.70;99.90;;;;;;5078782;28;19944;-83
2022/08/31 13:33:22;;;;;;;;;;;28.80;99.90;;;;;;5078257;28;19913;-84
2022/08/31 13:35:53;;;;;;;;;;;29.10;99.90;;;;;;5077181;28;19982;-85
2022/08/31 13:38:38;;;;;;;;;;;29.20;99.90;;;;;;5079197;28;19919;-84
2022/08/31 13:41:06;;;;;;;;;;;29.20;99.90;;;;;;5080215;28;19951;-84
2022/08/31 13:43:32;;;;;;;;;;;29.20;99.90;;;;;;5078098;28;19958;-83
2022/08/31 13:45:59;;;;;;;;;;;29.10;99.90;;;;;;5077887;28;19991;-84
2022/08/31 13:48:36;;;;;;;;;;;29.00;99.90;;;;;;5078256;28;20344;-83
2022/08/31 13:51:15;;;;;;;;;;;28.80;99.90;;;;;;5076587;28;20354;-84
2022/08/31 13:53:41;;;;;;;;;;;28.70;99.90;;;;;;5076236;28;19908;-84
2022/08/31 13:56:53;;;;;;;;;;;28.60;99.90;;;;;;5060043;28;19915;-86
2022/08/31 13:59:23;;;;;;;;;;;28.50;99.90;;;;;;5078704;28;19916;-87
2022/08/31 14:01:48;;;;;;;;;;;28.60;99.90;;;;;;5081153;28;19916;-87
2022/08/31 14:04:47;;;;;;;;;;;28.60;99.90;;;;;;5076574;28;19916;-87
2022/08/31 14:07:30;;;;;;;;;;;28.60;99.90;;;;;;5078975;28;19912;-87
2022/08/31 14:10:02;;;;;;;;;;;28.60;99.90;;;;;;5074561;28;20007;-87
2022/08/31 14:12:35;;;;;;;;;;;28.80;99.90;;;;;;5075679;28;19920;-86
2022/08/31 14:15:08;;;;;;;;;;;28.90;99.90;;;;;;5078534;28;20452;-87
2022/08/31 14:17:40;;;;;;;;;;;29.10;99.90;;;;;;5075515;28;20337;-85
2022/08/31 14:20:25;;;;;;;;;;;29.20;99.90;;;;;;5079968;28;20003;-86
2022/08/31 14:22:53;;;;;;;;;;;29.30;99.90;;;;;;5077572;28;20379;-87
2022/08/31 14:25:20;;;;;;;;;;;29.30;99.90;;;;;;5077009;28;19912;-87
2022/08/31 14:27:46;;;;;;;;;;;29.20;99.90;;;;;;5078699;28;20398;-86
2022/08/31 14:30:12;;;;;;;;;;;29.10;99.90;;;;;;5077769;28;20007;-85
2022/08/31 14:32:42;;;;;;;;;;;29.70;99.90;;;;;;5078342;28;19983;-87
2022/08/31 14:35:09;;;;;;;;;;;31.20;99.90;;;;;;5081375;28;19912;-86
2022/08/31 14:37:34;;;;;;;;;;;33.30;99.90;;;;;;5082873;28;20440;-87
2022/08/31 14:40:02;;;;;;;;;;;34.10;99.90;;;;;;5080795;28;19912;-86
2022/08/31 14:42:33;;;;;;;;;;;34.30;99.90;;;;;;5085111;28;19916;-86
2022/08/31 14:44:59;;;;;;;;;;;34.50;99.90;;;;;;5084098;28;19920;-87
2022/08/31 14:47:26;;;;;;;;;;;34.10;99.90;;;;;;5085381;28;19908;-87